Terminal Aerodrome Forecast
Issued by NWS

Home | Current Version | Previous Version | Text Only | Print | Product List | Glossary On
Versions: 1 2 3 4 5 6 7 8 9 10 11 12 13 14 15 16 17 18 19 20 21 22 23 24 25
000
FTUS45 KGJT 032336
TAFRIL
TAF
KRIL 032336Z 0400/0424 16007KT P6SM SCT090 BKN200
     FM040300 14008KT P6SM BKN250
     FM041200 00000KT P6SM SCT250
     FM041800 31008KT P6SM SCT100
     FM042100 31012KT P6SM VCTS SCT080CB BKN150=

USA.gov is the U.S. government's official web portal to all federal, state and local government web resources and services.